createdAt,value
2019-02-16T00:01:33.682Z,99.90
2019-02-16T00:03:08.468Z,99.90
2019-02-16T00:04:43.289Z,99.90
2019-02-16T00:06:18.118Z,99.90
2019-02-16T00:07:53.201Z,99.90
2019-02-16T00:09:28.349Z,99.90
2019-02-16T00:11:03.143Z,99.90
2019-02-16T00:12:38.206Z,99.90
2019-02-16T00:14:13.262Z,99.90
2019-02-16T00:15:48.050Z,99.90
2019-02-16T00:17:23.089Z,99.90
2019-02-16T00:18:57.898Z,99.90
2019-02-16T00:20:32.950Z,99.90
2019-02-16T00:22:07.745Z,99.90
2019-02-16T00:23:42.538Z,99.90
2019-02-16T00:25:17.355Z,99.90
2019-02-16T00:26:52.141Z,99.90
2019-02-16T00:28:27.164Z,99.90
2019-02-16T00:30:02.205Z,99.90
2019-02-16T00:31:37.271Z,99.90
2019-02-16T00:33:12.078Z,99.90
2019-02-16T00:34:47.120Z,99.90
2019-02-16T00:36:21.917Z,99.90
2019-02-16T00:37:56.987Z,99.90
2019-02-16T00:39:32.021Z,99.90
2019-02-16T00:41:06.835Z,99.90
2019-02-16T00:42:41.887Z,99.90
2019-02-16T00:44:16.952Z,99.90
2019-02-16T00:45:51.825Z,99.90
2019-02-16T00:47:26.892Z,99.90
2019-02-16T00:49:01.942Z,99.90
2019-02-16T00:50:36.746Z,99.90
2019-02-16T00:52:11.827Z,99.90
2019-02-16T00:53:46.630Z,99.90
2019-02-16T00:55:21.659Z,99.90
2019-02-16T00:56:56.457Z,99.90
2019-02-16T00:58:31.813Z,99.90
2019-02-16T01:00:08.602Z,99.90
2019-02-16T01:01:43.656Z,99.90
2019-02-16T01:03:18.463Z,99.90
2019-02-16T01:04:53.310Z,99.90
2019-02-16T01:06:28.364Z,99.90
2019-02-16T01:08:03.400Z,99.90
2019-02-16T01:09:38.488Z,99.90
2019-02-16T01:11:13.819Z,99.90
2019-02-16T01:12:48.864Z,99.90
2019-02-16T01:14:23.949Z,99.90
2019-02-16T01:15:58.755Z,99.90
2019-02-16T01:17:33.863Z,99.90
2019-02-16T01:19:08.924Z,99.90
2019-02-16T01:20:43.993Z,99.90
2019-02-16T01:22:18.796Z,99.90
2019-02-16T01:23:54.083Z,99.90
2019-02-16T01:25:29.624Z,99.90
2019-02-16T01:27:04.436Z,99.90
2019-02-16T01:28:39.234Z,99.90
2019-02-16T01:30:14.517Z,99.90
2019-02-16T01:31:49.359Z,99.90
2019-02-16T01:33:24.179Z,99.90
2019-02-16T01:34:59.481Z,99.90
2019-02-16T01:36:34.521Z,99.90
2019-02-16T01:38:09.362Z,99.90
2019-02-16T01:39:44.147Z,99.90
2019-02-16T01:41:19.436Z,99.90
2019-02-16T01:42:54.469Z,99.90
2019-02-16T01:44:29.593Z,99.90
2019-02-16T01:46:04.414Z,99.90
2019-02-16T01:47:39.224Z,99.90
2019-02-16T01:49:14.022Z,99.90
2019-02-16T01:50:48.891Z,99.90
2019-02-16T01:52:23.963Z,99.90
2019-02-16T01:53:59.273Z,99.90
2019-02-16T01:55:34.091Z,99.90
2019-02-16T01:57:09.279Z,99.90
2019-02-16T01:58:44.567Z,99.90
2019-02-16T02:00:19.707Z,99.90
2019-02-16T02:01:54.504Z,99.90
2019-02-16T02:03:29.340Z,99.90
2019-02-16T02:05:04.577Z,99.90
2019-02-16T02:06:39.633Z,99.90
2019-02-16T02:08:14.449Z,99.90
2019-02-16T02:09:49.268Z,99.90
2019-02-16T02:11:24.326Z,99.90
2019-02-16T02:12:59.640Z,99.90
2019-02-16T02:14:34.859Z,99.90
2019-02-16T02:16:09.660Z,99.90
2019-02-16T02:17:44.556Z,99.90
2019-02-16T02:19:19.367Z,99.90
2019-02-16T02:20:54.441Z,99.90
2019-02-16T02:22:29.504Z,99.90
2019-02-16T02:24:04.468Z,99.90
2019-02-16T02:25:39.528Z,99.90
2019-02-16T02:27:14.325Z,99.90
2019-02-16T02:28:49.146Z,99.90
2019-02-16T02:30:23.984Z,99.90
2019-02-16T02:31:59.266Z,99.90
2019-02-16T02:33:34.393Z,99.90
2019-02-16T02:35:09.221Z,99.90
2019-02-16T02:36:44.018Z,99.90
2019-02-16T02:38:19.059Z,99.90
2019-02-16T02:39:53.880Z,99.90
2019-02-16T02:41:28.929Z,99.90
2019-02-16T02:43:03.749Z,99.90
2019-02-16T02:44:38.564Z,99.90
2019-02-16T02:46:13.364Z,99.90
2019-02-16T02:47:48.182Z,99.90
2019-02-16T02:49:23.261Z,99.90
2019-02-16T02:50:58.060Z,99.90
2019-02-16T02:52:32.861Z,99.90
2019-02-16T02:54:07.917Z,99.90
2019-02-16T02:55:42.966Z,99.90
2019-02-16T02:57:18.271Z,99.90
2019-02-16T02:58:53.062Z,99.90
2019-02-16T03:00:28.444Z,99.90
2019-02-16T03:02:03.259Z,99.90
2019-02-16T03:03:38.048Z,99.90
2019-02-16T03:05:12.981Z,99.90
2019-02-16T03:06:48.083Z,99.90
2019-02-16T03:08:23.232Z,99.90
2019-02-16T03:09:58.026Z,99.90
2019-02-16T03:11:32.830Z,99.90
2019-02-16T03:13:07.888Z,99.90
2019-02-16T03:14:42.971Z,99.90
2019-02-16T03:16:17.840Z,99.90
2019-02-16T03:17:52.655Z,99.90
2019-02-16T03:19:27.924Z,99.90
2019-02-16T03:21:02.969Z,99.90
2019-02-16T03:23:16.199Z,99.90
2019-02-16T07:14:52.202Z,99.90
2019-02-16T07:16:49.316Z,99.90
2019-02-16T07:18:33.770Z,99.90
2019-02-16T07:20:09.359Z,99.90
2019-02-16T07:21:44.419Z,99.90
2019-02-16T07:23:22.437Z,99.90
2019-02-16T07:24:55.739Z,99.90
2019-02-16T07:26:30.538Z,99.90
2019-02-16T07:28:05.829Z,99.90
2019-02-16T07:29:40.661Z,99.90
2019-02-16T07:31:16.003Z,99.90
2019-02-16T07:32:51.099Z,99.90
2019-02-16T07:34:25.996Z,99.90
2019-02-16T07:36:00.785Z,99.90
2019-02-16T07:37:35.575Z,99.90
2019-02-16T07:39:10.432Z,99.90
2019-02-16T07:40:45.498Z,99.90
2019-02-16T07:42:20.775Z,99.90
2019-02-16T07:44:23.645Z,99.90
2019-02-16T07:46:07.258Z,99.90
2019-02-16T07:49:54.304Z,99.90
2019-02-16T07:51:41.020Z,99.90
2019-02-16T07:53:38.177Z,99.90
2019-02-16T07:55:20.701Z,99.90
2019-02-16T07:57:14.903Z,99.90
2019-02-16T07:58:59.029Z,99.90
2019-02-16T08:00:41.064Z,99.90
2019-02-16T08:02:23.541Z,99.90
2019-02-16T08:04:24.193Z,99.90
2019-02-16T08:06:16.653Z,99.90
2019-02-16T08:08:09.132Z,99.90
2019-02-16T08:09:55.792Z,99.90
2019-02-16T08:11:49.885Z,99.90
2019-02-16T08:13:52.748Z,99.90
2019-02-16T08:15:45.231Z,99.90
2019-02-16T08:17:27.389Z,99.90
2019-02-16T08:19:19.979Z,99.90
2019-02-16T08:21:13.771Z,99.90
2019-02-16T08:22:59.015Z,99.90
2019-02-16T08:24:59.763Z,99.90
2019-02-16T08:26:52.564Z,99.90
2019-02-16T08:28:35.666Z,99.90
2019-02-16T08:32:42.231Z,99.90
2019-02-16T08:34:26.579Z,99.90
2019-02-16T08:36:19.459Z,99.90
2019-02-16T08:38:02.893Z,99.90
2019-02-16T08:39:49.285Z,99.90
2019-02-16T08:41:46.155Z,99.90
2019-02-16T08:43:41.110Z,99.90
2019-02-16T08:45:38.165Z,99.90
2019-02-16T08:47:37.546Z,99.90
2019-02-16T08:49:23.502Z,99.90
2019-02-16T08:51:09.171Z,99.90
2019-02-16T08:53:07.328Z,99.90
2019-02-16T08:55:00.299Z,99.90
2019-02-16T08:56:52.371Z,99.90
2019-02-16T08:58:49.385Z,99.90
2019-02-16T09:00:43.535Z,99.90
2019-02-16T09:02:24.149Z,99.90
2019-02-16T09:04:23.139Z,99.90
2019-02-16T09:06:20.052Z,99.90
2019-02-16T09:08:10.826Z,99.90
2019-02-16T09:10:14.157Z,99.90
2019-02-16T09:12:08.509Z,99.90
2019-02-16T09:13:55.703Z,99.90
2019-02-16T09:16:02.060Z,99.70
2019-02-16T09:18:01.236Z,99.90
2019-02-16T09:20:05.169Z,99.60
2019-02-16T09:21:57.844Z,98.90
2019-02-16T09:23:39.683Z,98.80
2019-02-16T09:25:31.357Z,98.60
2019-02-16T09:27:24.029Z,98.40
2019-02-16T09:29:06.005Z,98.00
2019-02-16T09:30:51.060Z,97.40
2019-02-16T09:32:54.691Z,97.30
2019-02-16T09:34:40.107Z,97.00
2019-02-16T09:36:28.214Z,96.80
2019-02-16T09:38:34.081Z,96.60
2019-02-16T09:40:26.674Z,96.10
2019-02-16T09:42:07.956Z,96.10
2019-02-16T09:44:00.565Z,96.00
2019-02-16T09:46:03.583Z,96.30
2019-02-16T09:48:02.143Z,96.20
2019-02-16T09:49:49.851Z,96.20
2019-02-16T09:51:43.664Z,96.30
2019-02-16T09:53:33.462Z,96.00
2019-02-16T09:55:23.382Z,95.60
2019-02-16T09:57:29.621Z,95.30
2019-02-16T09:59:09.949Z,94.90
2019-02-16T10:01:03.755Z,95.10
2019-02-16T10:02:48.121Z,94.50
2019-02-16T10:04:40.911Z,94.00
2019-02-16T10:06:41.444Z,94.00
2019-02-16T10:08:32.896Z,94.20
2019-02-16T10:10:26.012Z,94.30
2019-02-16T10:12:21.015Z,93.80
2019-02-16T10:14:13.755Z,93.90
2019-02-16T10:16:10.658Z,93.60
2019-02-16T10:18:19.739Z,93.90
2019-02-16T10:20:04.354Z,93.60
2019-02-16T10:21:59.003Z,92.90
2019-02-16T10:23:56.084Z,92.50
2019-02-16T10:25:40.279Z,92.60
2019-02-16T10:27:37.086Z,92.40
2019-02-16T10:29:40.115Z,92.40
2019-02-16T10:31:32.027Z,92.60
2019-02-16T10:33:12.661Z,92.20
2019-02-16T10:34:56.789Z,91.70
2019-02-16T10:36:49.230Z,91.70
2019-02-16T10:38:42.019Z,91.10
2019-02-16T10:40:38.942Z,91.30
2019-02-16T10:42:24.724Z,91.10
2019-02-16T10:44:16.150Z,91.10
2019-02-16T10:46:11.030Z,90.80
2019-02-16T10:48:03.925Z,90.30
2019-02-16T10:50:13.183Z,90.10
2019-02-16T10:52:09.987Z,88.70
2019-02-16T10:54:06.605Z,88.90
2019-02-16T10:55:59.596Z,85.90
2019-02-16T10:57:42.419Z,88.10
2019-02-16T10:59:22.279Z,88.40
2019-02-16T11:01:05.031Z,86.60
2019-02-16T11:02:52.063Z,87.30
2019-02-16T11:04:38.267Z,86.80
2019-02-16T11:06:29.638Z,85.60
2019-02-16T11:08:12.010Z,84.90
2019-02-16T11:09:52.049Z,82.90
2019-02-16T11:11:37.266Z,83.50
2019-02-16T11:13:25.631Z,84.10
2019-02-16T11:15:18.295Z,83.80
2019-02-16T11:17:11.323Z,80.80
2019-02-16T11:18:59.085Z,81.70
2019-02-16T11:20:52.800Z,81.20
2019-02-16T11:22:34.678Z,81.40
2019-02-16T11:24:19.195Z,81.90
2019-02-16T11:26:05.874Z,82.30
2019-02-16T11:27:48.589Z,82.60
2019-02-16T11:29:37.868Z,82.30
2019-02-16T11:31:20.761Z,79.90
2019-02-16T11:33:07.579Z,80.00
2019-02-16T11:34:54.492Z,78.40
2019-02-16T11:36:35.252Z,78.70
2019-02-16T11:38:29.776Z,76.70
2019-02-16T11:40:24.790Z,75.40
2019-02-16T11:42:17.258Z,72.50
2019-02-16T11:44:12.374Z,73.10
2019-02-16T11:46:12.385Z,72.00
2019-02-16T11:49:54.967Z,71.40
2019-02-16T11:51:47.923Z,69.30
2019-02-16T11:53:40.605Z,71.70
2019-02-16T11:55:33.347Z,73.00
2019-02-16T11:57:28.529Z,69.30
2019-02-16T11:59:20.908Z,69.70
2019-02-16T12:01:03.355Z,69.30
2019-02-16T12:02:50.079Z,69.20
2019-02-16T12:04:39.953Z,68.90
2019-02-16T12:06:24.016Z,70.90
2019-02-16T12:08:12.232Z,67.70
2019-02-16T12:10:06.021Z,69.30
2019-02-16T12:12:15.177Z,71.80
2019-02-16T12:14:10.843Z,71.30
2019-02-16T12:18:20.490Z,70.50
2019-02-16T12:20:04.251Z,71.50
2019-02-16T12:22:36.402Z,69.70
2019-02-16T12:25:05.667Z,70.80
2019-02-16T12:28:00.554Z,69.40
2019-02-16T12:30:02.237Z,67.90
2019-02-16T12:32:01.099Z,70.60
2019-02-16T12:33:56.924Z,71.00
2019-02-16T12:35:56.954Z,70.10
2019-02-16T12:38:00.188Z,66.20
2019-02-16T12:40:14.171Z,66.80
2019-02-16T12:42:07.182Z,68.10
2019-02-16T12:43:53.871Z,67.60
2019-02-16T12:45:50.622Z,71.70
2019-02-16T12:47:27.779Z,70.60
2019-02-16T12:49:33.739Z,70.40
2019-02-16T12:51:39.332Z,71.20
2019-02-16T12:53:32.637Z,70.60
2019-02-16T12:55:36.337Z,69.50
2019-02-16T12:57:39.800Z,69.50
2019-02-16T12:59:49.793Z,71.70
2019-02-16T13:01:47.960Z,70.60
2019-02-16T13:03:45.096Z,70.80
2019-02-16T13:05:31.606Z,71.80
2019-02-16T13:07:47.725Z,71.00
2019-02-16T13:09:58.716Z,71.20
2019-02-16T13:12:38.608Z,71.50
2019-02-16T13:14:44.965Z,71.80
2019-02-16T13:16:35.886Z,69.60
2019-02-16T13:18:29.017Z,68.40
2019-02-16T13:20:12.923Z,67.20
2019-02-16T13:21:56.246Z,68.80
2019-02-16T13:23:42.430Z,69.60
2019-02-16T13:25:42.340Z,68.40
2019-02-16T13:27:34.579Z,68.80
2019-02-16T13:29:31.939Z,67.50
2019-02-16T13:31:27.492Z,65.30
2019-02-16T13:33:21.622Z,67.40
2019-02-16T13:35:15.890Z,64.50
2019-02-16T13:37:12.744Z,66.70
2019-02-16T13:39:13.451Z,68.10
2019-02-16T13:41:07.238Z,69.70
2019-02-16T13:42:54.216Z,68.10
2019-02-16T13:44:40.726Z,67.90
2019-02-16T13:46:27.890Z,68.70
2019-02-16T13:48:11.594Z,65.60
2019-02-16T13:49:52.837Z,66.80
2019-02-16T13:51:56.161Z,66.30
2019-02-16T13:53:47.696Z,65.70
2019-02-16T13:55:33.453Z,66.70
2019-02-16T13:57:22.339Z,66.90
2019-02-16T13:59:25.446Z,66.70
2019-02-16T14:01:08.349Z,66.70
2019-02-16T14:03:00.864Z,66.90
2019-02-16T14:04:53.473Z,68.20
2019-02-16T14:06:44.043Z,68.90
2019-02-16T14:08:46.987Z,68.90
2019-02-16T14:10:56.861Z,69.40
2019-02-16T14:12:49.424Z,69.00
2019-02-16T14:14:52.822Z,67.00
2019-02-16T14:16:34.835Z,66.80
2019-02-16T14:18:09.621Z,66.30
2019-02-16T14:19:45.295Z,65.70
2019-02-16T14:21:20.449Z,65.90
2019-02-16T14:23:01.005Z,66.70
2019-02-16T14:24:42.494Z,66.50
2019-02-16T14:26:18.219Z,67.20
2019-02-16T14:27:53.041Z,67.10
2019-02-16T14:29:29.338Z,68.60
2019-02-16T14:31:04.396Z,69.00
2019-02-16T14:32:39.408Z,69.30
2019-02-16T14:34:14.460Z,70.10
2019-02-16T14:35:49.550Z,70.30
2019-02-16T14:37:46.446Z,70.00
2019-02-16T14:39:29.914Z,70.90
2019-02-16T14:41:09.387Z,72.10
2019-02-16T14:42:45.014Z,72.90
2019-02-16T14:44:19.814Z,72.70
2019-02-16T14:45:54.871Z,73.10
2019-02-16T14:47:30.804Z,73.90
2019-02-16T14:49:06.167Z,73.70
2019-02-16T14:50:41.194Z,75.20
2019-02-16T14:52:16.815Z,74.00
2019-02-16T14:53:52.349Z,75.00
2019-02-16T14:55:27.799Z,74.90
2019-02-16T14:57:02.590Z,75.60
2019-02-16T14:58:38.832Z,76.60
2019-02-16T15:00:13.794Z,77.50
2019-02-16T15:01:48.589Z,77.50
2019-02-16T15:03:23.852Z,77.30
2019-02-16T15:04:58.889Z,77.60
2019-02-16T15:06:33.722Z,78.30
2019-02-16T15:08:08.768Z,78.70
2019-02-16T15:09:44.185Z,79.60
2019-02-16T15:11:19.296Z,79.40
2019-02-16T15:12:54.500Z,79.50
2019-02-16T15:14:29.613Z,79.60
2019-02-16T15:16:05.528Z,79.20
2019-02-16T15:17:40.587Z,79.40
2019-02-16T15:19:16.559Z,79.00
2019-02-16T15:20:51.729Z,80.00
2019-02-16T15:22:26.609Z,80.10
2019-02-16T15:24:01.672Z,80.80
2019-02-16T15:25:46.254Z,80.60
2019-02-16T15:27:21.857Z,81.00
2019-02-16T15:28:56.680Z,81.80
2019-02-16T15:30:31.986Z,82.50
2019-02-16T15:32:07.304Z,83.80
2019-02-16T15:33:42.885Z,84.70
2019-02-16T15:35:20.902Z,85.10
2019-02-16T15:36:55.927Z,85.10
2019-02-16T15:38:30.755Z,85.40
2019-02-16T15:40:20.685Z,87.10
2019-02-16T15:50:12.301Z,86.00
2019-02-16T15:51:47.105Z,90.30
2019-02-16T15:53:22.996Z,90.50
2019-02-16T15:54:57.958Z,91.00
2019-02-16T15:56:34.915Z,91.40
2019-02-16T15:58:10.256Z,91.30
2019-02-16T15:59:45.296Z,91.50
2019-02-16T16:01:20.383Z,91.90
2019-02-16T16:02:55.204Z,92.20
2019-02-16T16:04:30.256Z,92.40
2019-02-16T16:06:05.870Z,92.70
2019-02-16T16:07:43.336Z,93.30
2019-02-16T16:09:36.302Z,93.20
2019-02-16T16:11:26.620Z,93.30
2019-02-16T16:13:20.444Z,93.90
2019-02-16T16:15:09.712Z,94.20
2019-02-16T16:17:06.442Z,94.20
2019-02-16T16:19:06.176Z,94.20
2019-02-16T16:20:48.339Z,94.40
2019-02-16T16:22:33.085Z,94.70
2019-02-16T16:24:29.792Z,95.30
2019-02-16T16:26:24.383Z,95.70
2019-02-16T16:28:30.758Z,95.90
2019-02-16T16:30:31.817Z,96.00
2019-02-16T16:32:35.141Z,96.90
2019-02-16T16:34:28.068Z,97.20
2019-02-16T16:36:18.313Z,97.40
2019-02-16T16:38:00.143Z,97.80
2019-02-16T16:39:54.472Z,97.90
2019-02-16T16:41:36.093Z,97.70
2019-02-16T16:43:39.128Z,98.30
2019-02-16T16:45:33.207Z,97.90
2019-02-16T16:47:27.160Z,98.00
2019-02-16T16:49:20.050Z,98.50
2019-02-16T16:51:09.639Z,98.30
2019-02-16T16:55:01.703Z,99.10
2019-02-16T16:56:54.684Z,99.20
2019-02-16T16:58:38.911Z,98.90
2019-02-16T17:00:27.932Z,99.20
2019-02-16T17:08:14.908Z,99.10
2019-02-16T17:09:59.075Z,99.10
2019-02-16T17:11:55.340Z,99.10
2019-02-16T17:13:44.262Z,99.20
2019-02-16T17:15:38.626Z,99.50
2019-02-16T17:17:38.433Z,99.80
2019-02-16T17:19:28.879Z,99.90
2019-02-16T17:21:31.919Z,99.90
2019-02-16T17:23:31.758Z,99.90
2019-02-16T17:25:21.652Z,99.90
2019-02-16T17:27:14.435Z,99.90
2019-02-16T17:29:24.397Z,99.90
2019-02-16T17:31:10.767Z,99.90
2019-02-16T17:33:17.286Z,99.70
2019-02-16T17:35:17.683Z,99.60
2019-02-16T17:37:23.833Z,99.60
2019-02-16T17:39:15.824Z,99.60
2019-02-16T17:41:19.692Z,99.80
2019-02-16T17:43:04.048Z,99.90
2019-02-16T17:45:01.549Z,99.90
2019-02-16T17:46:55.778Z,99.90
2019-02-16T17:48:49.333Z,99.90
2019-02-16T17:50:31.382Z,99.90
2019-02-16T17:52:28.235Z,99.90
2019-02-16T17:54:26.459Z,99.90
2019-02-16T17:56:08.774Z,99.90
2019-02-16T17:57:49.906Z,99.90
2019-02-16T17:59:49.546Z,99.90
2019-02-16T18:01:52.750Z,99.90
2019-02-16T18:03:48.510Z,99.90
2019-02-16T18:05:41.647Z,99.90
2019-02-16T18:07:26.800Z,99.90
2019-02-16T18:09:20.519Z,99.90
2019-02-16T18:11:09.502Z,99.90
2019-02-16T18:13:06.921Z,99.90
2019-02-16T18:14:53.004Z,99.90
2019-02-16T18:16:53.484Z,99.90
2019-02-16T18:18:38.192Z,99.90
2019-02-16T18:20:28.541Z,99.90
2019-02-16T19:31:29.433Z,99.90
2019-02-16T19:33:09.849Z,99.90
2019-02-16T19:34:57.830Z,99.90
2019-02-16T19:36:47.376Z,99.90
2019-02-16T19:38:50.410Z,99.90
2019-02-16T19:40:37.160Z,99.90
2019-02-16T19:42:20.194Z,99.90
2019-02-16T19:44:13.050Z,99.90
2019-02-16T19:45:56.612Z,99.90
2019-02-16T19:47:45.655Z,99.90
2019-02-16T19:49:29.609Z,99.90
2019-02-16T19:51:29.635Z,99.90
2019-02-16T19:53:25.097Z,99.90
2019-02-16T19:55:17.542Z,99.90
2019-02-16T19:56:58.612Z,99.90
2019-02-16T20:59:57.650Z,99.90
2019-02-16T21:01:43.876Z,99.90
2019-02-16T21:03:37.192Z,99.90
2019-02-16T21:05:19.055Z,99.90
2019-02-16T21:07:06.840Z,99.90
2019-02-16T21:09:07.555Z,99.90
2019-02-16T21:10:52.359Z,99.90
2019-02-16T21:12:48.736Z,99.90
2019-02-16T21:14:32.705Z,99.90
2019-02-16T21:16:25.894Z,99.90
2019-02-16T21:18:18.345Z,99.90
2019-02-16T21:20:10.947Z,99.90
2019-02-16T21:21:53.826Z,99.90
2019-02-16T21:23:46.375Z,99.90
2019-02-16T21:25:29.709Z,99.90
2019-02-16T21:27:11.203Z,99.90
2019-02-16T21:28:51.766Z,99.90
2019-02-16T21:30:39.012Z,99.90
2019-02-16T21:32:31.648Z,99.90
2019-02-16T21:34:32.807Z,99.90
2019-02-16T21:36:17.093Z,99.90
2019-02-16T21:38:08.601Z,99.90
2019-02-16T21:40:02.899Z,99.90
2019-02-16T21:41:59.850Z,99.90
2019-02-16T21:44:00.218Z,99.90
2019-02-16T21:46:03.125Z,99.90
2019-02-16T21:47:55.896Z,99.90
2019-02-16T21:49:49.987Z,99.90
2019-02-16T21:51:47.572Z,99.90
2019-02-16T21:53:40.023Z,99.90
2019-02-16T21:55:35.426Z,99.90
2019-02-16T21:57:21.493Z,99.90
2019-02-16T21:59:19.287Z,99.90
2019-02-16T22:01:10.304Z,99.90
2019-02-16T22:02:54.573Z,99.90
2019-02-16T22:04:48.870Z,99.90
2019-02-16T22:06:41.385Z,99.90
2019-02-16T22:08:36.100Z,99.90
2019-02-16T22:10:17.164Z,99.90
2019-02-16T22:12:11.230Z,99.90
2019-02-16T22:13:47.204Z,99.90
2019-02-16T22:15:22.015Z,99.90
2019-02-16T22:16:56.814Z,99.90
2019-02-16T22:18:32.339Z,99.90
2019-02-16T22:20:10.061Z,99.90
2019-02-16T22:21:44.843Z,99.90
2019-02-16T22:23:19.916Z,99.90
2019-02-16T22:24:55.219Z,99.90
2019-02-16T22:26:30.418Z,99.90
2019-02-16T22:28:05.218Z,99.90
2019-02-16T22:29:40.511Z,99.90
2019-02-16T22:31:17.791Z,99.90
2019-02-16T22:32:52.407Z,99.90
2019-02-16T22:34:27.186Z,99.90
2019-02-16T22:36:01.967Z,99.90
2019-02-16T22:37:37.020Z,99.90
2019-02-16T22:39:12.459Z,99.90
2019-02-16T22:40:47.509Z,99.90
2019-02-16T22:42:22.906Z,99.90
2019-02-16T22:43:57.701Z,99.90
2019-02-16T22:45:33.048Z,99.90
2019-02-16T22:47:08.174Z,99.90
2019-02-16T22:48:43.549Z,99.90
2019-02-16T22:50:18.629Z,99.90
2019-02-16T22:51:53.708Z,99.90
2019-02-16T22:53:28.742Z,99.90
2019-02-16T22:55:03.751Z,99.90
2019-02-16T22:56:38.568Z,99.90
2019-02-16T22:58:13.845Z,99.90
2019-02-16T22:59:49.144Z,99.90
2019-02-16T23:01:24.516Z,99.90
2019-02-16T23:02:59.322Z,99.90
2019-02-16T23:04:34.451Z,99.90
2019-02-16T23:06:09.496Z,99.90
2019-02-16T23:07:44.307Z,99.90
2019-02-16T23:09:27.487Z,99.90
2019-02-16T23:11:02.742Z,99.90
2019-02-16T23:12:37.917Z,99.90
2019-02-16T23:14:13.205Z,99.90
2019-02-16T23:15:48.445Z,99.90
2019-02-16T23:17:23.252Z,99.90
2019-02-16T23:18:58.035Z,99.90
2019-02-16T23:20:33.101Z,99.90
2019-02-16T23:22:07.984Z,99.90
2019-02-16T23:23:42.808Z,99.90
2019-02-16T23:25:17.743Z,99.90
2019-02-16T23:26:52.585Z,99.90
2019-02-16T23:28:27.679Z,99.90
2019-02-16T23:30:02.519Z,99.90
2019-02-16T23:31:37.587Z,99.90
2019-02-16T23:33:12.505Z,99.90
2019-02-16T23:34:48.643Z,99.90
2019-02-16T23:36:23.998Z,99.90
2019-02-16T23:37:58.804Z,99.90
2019-02-16T23:39:34.475Z,99.90
2019-02-16T23:41:10.082Z,99.90
2019-02-16T23:42:45.199Z,99.90
2019-02-16T23:44:20.075Z,99.90
2019-02-16T23:45:55.449Z,99.90
2019-02-16T23:47:30.259Z,99.90
2019-02-16T23:49:05.035Z,99.90
2019-02-16T23:50:40.316Z,99.90
2019-02-16T23:52:15.292Z,99.90
2019-02-16T23:53:50.108Z,99.90
2019-02-16T23:55:25.202Z,99.90
2019-02-16T23:57:00.220Z,99.90
2019-02-16T23:58:35.750Z,99.90
